sensor_id;sensor_type;location;lat;lon;timestamp;P1;durP1;ratioP1;P2;durP2;ratioP2
23082;SDS011;11709;52.420;10.538;2022-11-06T00:01:37;11.55;;;4.60;;
23082;SDS011;11709;52.420;10.538;2022-11-06T00:05:40;14.98;;;4.72;;
23082;SDS011;11709;52.420;10.538;2022-11-06T00:10:02;8.83;;;4.75;;
23082;SDS011;11709;52.420;10.538;2022-11-06T00:14:04;8.80;;;4.45;;
23082;SDS011;11709;52.420;10.538;2022-11-06T00:18:07;13.03;;;5.33;;
23082;SDS011;11709;52.420;10.538;2022-11-06T00:22:10;10.90;;;4.78;;
23082;SDS011;11709;52.420;10.538;2022-11-06T00:26:13;11.30;;;4.47;;
23082;SDS011;11709;52.420;10.538;2022-11-06T00:30:17;8.35;;;4.78;;
23082;SDS011;11709;52.420;10.538;2022-11-06T00:34:20;11.93;;;4.70;;
23082;SDS011;11709;52.420;10.538;2022-11-06T00:38:23;6.35;;;4.08;;
23082;SDS011;11709;52.420;10.538;2022-11-06T00:42:25;9.60;;;4.62;;
23082;SDS011;11709;52.420;10.538;2022-11-06T00:46:28;11.78;;;5.05;;
23082;SDS011;11709;52.420;10.538;2022-11-06T00:50:31;12.98;;;4.50;;
23082;SDS011;11709;52.420;10.538;2022-11-06T00:54:34;10.72;;;4.80;;
23082;SDS011;11709;52.420;10.538;2022-11-06T00:58:36;11.12;;;5.17;;
23082;SDS011;11709;52.420;10.538;2022-11-06T01:02:39;12.58;;;5.12;;
23082;SDS011;11709;52.420;10.538;2022-11-06T01:06:43;8.48;;;4.78;;
23082;SDS011;11709;52.420;10.538;2022-11-06T01:10:47;8.30;;;4.83;;
23082;SDS011;11709;52.420;10.538;2022-11-06T01:14:49;9.50;;;5.25;;
23082;SDS011;11709;52.420;10.538;2022-11-06T01:18:52;9.88;;;5.12;;
23082;SDS011;11709;52.420;10.538;2022-11-06T01:22:56;12.18;;;4.80;;
23082;SDS011;11709;52.420;10.538;2022-11-06T01:26:59;9.00;;;5.05;;
23082;SDS011;11709;52.420;10.538;2022-11-06T01:31:06;8.43;;;4.65;;
23082;SDS011;11709;52.420;10.538;2022-11-06T01:35:12;9.35;;;4.95;;
23082;SDS011;11709;52.420;10.538;2022-11-06T01:39:15;9.93;;;5.45;;
23082;SDS011;11709;52.420;10.538;2022-11-06T01:43:19;13.60;;;5.58;;
23082;SDS011;11709;52.420;10.538;2022-11-06T01:47:24;8.77;;;4.77;;
23082;SDS011;11709;52.420;10.538;2022-11-06T01:51:28;13.62;;;5.65;;
23082;SDS011;11709;52.420;10.538;2022-11-06T01:55:35;13.20;;;5.78;;
23082;SDS011;11709;52.420;10.538;2022-11-06T01:59:41;11.95;;;5.30;;
23082;SDS011;11709;52.420;10.538;2022-11-06T02:03:49;10.07;;;5.20;;
23082;SDS011;11709;52.420;10.538;2022-11-06T02:07:53;10.50;;;5.70;;
23082;SDS011;11709;52.420;10.538;2022-11-06T02:12:02;11.35;;;5.05;;
23082;SDS011;11709;52.420;10.538;2022-11-06T02:16:20;10.45;;;4.75;;
23082;SDS011;11709;52.420;10.538;2022-11-06T02:20:32;13.15;;;5.12;;
23082;SDS011;11709;52.420;10.538;2022-11-06T02:29:19;12.63;;;5.10;;
23082;SDS011;11709;52.420;10.538;2022-11-06T02:33:26;15.40;;;5.17;;
23082;SDS011;11709;52.420;10.538;2022-11-06T02:37:32;9.43;;;5.62;;
23082;SDS011;11709;52.420;10.538;2022-11-06T02:41:38;15.88;;;5.45;;
23082;SDS011;11709;52.420;10.538;2022-11-06T02:45:46;9.98;;;5.37;;
23082;SDS011;11709;52.420;10.538;2022-11-06T02:49:54;11.73;;;6.20;;
23082;SDS011;11709;52.420;10.538;2022-11-06T02:53:59;13.53;;;6.08;;
23082;SDS011;11709;52.420;10.538;2022-11-06T02:58:05;11.95;;;5.40;;
23082;SDS011;11709;52.420;10.538;2022-11-06T03:02:18;13.22;;;5.72;;
23082;SDS011;11709;52.420;10.538;2022-11-06T03:06:41;10.08;;;5.53;;
23082;SDS011;11709;52.420;10.538;2022-11-06T03:11:03;10.75;;;5.95;;
23082;SDS011;11709;52.420;10.538;2022-11-06T03:23:33;10.30;;;6.40;;
23082;SDS011;11709;52.420;10.538;2022-11-06T03:27:41;14.03;;;6.55;;
23082;SDS011;11709;52.420;10.538;2022-11-06T03:32:12;11.53;;;6.35;;
23082;SDS011;11709;52.420;10.538;2022-11-06T03:36:20;14.10;;;6.95;;
23082;SDS011;11709;52.420;10.538;2022-11-06T03:40:25;10.65;;;6.40;;
23082;SDS011;11709;52.420;10.538;2022-11-06T03:44:31;7.30;;;4.95;;
23082;SDS011;11709;52.420;10.538;2022-11-06T03:48:43;21.27;;;6.83;;
23082;SDS011;11709;52.420;10.538;2022-11-06T03:52:51;13.80;;;6.78;;
23082;SDS011;11709;52.420;10.538;2022-11-06T04:01:07;17.30;;;6.90;;
23082;SDS011;11709;52.420;10.538;2022-11-06T04:05:20;16.52;;;7.37;;
23082;SDS011;11709;52.420;10.538;2022-11-06T04:09:20;11.88;;;6.97;;
23082;SDS011;11709;52.420;10.538;2022-11-06T04:13:42;14.85;;;7.62;;
23082;SDS011;11709;52.420;10.538;2022-11-06T04:18:00;17.52;;;7.62;;
23082;SDS011;11709;52.420;10.538;2022-11-06T04:22:17;13.13;;;7.05;;
23082;SDS011;11709;52.420;10.538;2022-11-06T04:26:23;14.20;;;6.92;;
23082;SDS011;11709;52.420;10.538;2022-11-06T04:34:55;13.98;;;6.55;;
23082;SDS011;11709;52.420;10.538;2022-11-06T04:39:16;19.48;;;6.42;;
23082;SDS011;11709;52.420;10.538;2022-11-06T04:47:35;18.30;;;6.40;;
23082;SDS011;11709;52.420;10.538;2022-11-06T04:51:39;11.90;;;6.20;;
23082;SDS011;11709;52.420;10.538;2022-11-06T04:55:47;12.10;;;6.15;;
23082;SDS011;11709;52.420;10.538;2022-11-06T04:59:51;14.58;;;6.40;;
23082;SDS011;11709;52.420;10.538;2022-11-06T05:03:56;13.50;;;6.55;;
23082;SDS011;11709;52.420;10.538;2022-11-06T05:07:58;14.90;;;7.03;;
23082;SDS011;11709;52.420;10.538;2022-11-06T05:12:01;17.40;;;6.55;;
23082;SDS011;11709;52.420;10.538;2022-11-06T05:16:04;15.08;;;6.62;;
23082;SDS011;11709;52.420;10.538;2022-11-06T05:20:06;13.90;;;6.42;;
23082;SDS011;11709;52.420;10.538;2022-11-06T05:24:09;13.48;;;7.17;;
23082;SDS011;11709;52.420;10.538;2022-11-06T05:28:12;12.78;;;6.87;;
23082;SDS011;11709;52.420;10.538;2022-11-06T05:32:14;11.05;;;6.22;;
23082;SDS011;11709;52.420;10.538;2022-11-06T05:36:17;16.45;;;8.28;;
23082;SDS011;11709;52.420;10.538;2022-11-06T05:40:19;14.40;;;7.08;;
23082;SDS011;11709;52.420;10.538;2022-11-06T05:44:22;14.73;;;6.67;;
23082;SDS011;11709;52.420;10.538;2022-11-06T05:48:26;11.28;;;6.70;;
23082;SDS011;11709;52.420;10.538;2022-11-06T05:52:29;11.15;;;5.97;;
23082;SDS011;11709;52.420;10.538;2022-11-06T05:56:31;15.60;;;7.12;;
23082;SDS011;11709;52.420;10.538;2022-11-06T06:00:34;15.23;;;6.87;;
23082;SDS011;11709;52.420;10.538;2022-11-06T06:04:36;13.35;;;6.90;;
23082;SDS011;11709;52.420;10.538;2022-11-06T06:08:38;11.88;;;6.65;;
23082;SDS011;11709;52.420;10.538;2022-11-06T06:12:41;16.48;;;6.72;;
23082;SDS011;11709;52.420;10.538;2022-11-06T06:16:44;14.07;;;6.75;;
23082;SDS011;11709;52.420;10.538;2022-11-06T06:20:46;15.10;;;7.15;;
23082;SDS011;11709;52.420;10.538;2022-11-06T06:24:49;20.23;;;7.05;;
23082;SDS011;11709;52.420;10.538;2022-11-06T06:28:51;12.43;;;6.35;;
23082;SDS011;11709;52.420;10.538;2022-11-06T06:32:54;17.67;;;7.40;;
23082;SDS011;11709;52.420;10.538;2022-11-06T06:36:56;14.10;;;6.60;;
23082;SDS011;11709;52.420;10.538;2022-11-06T06:40:59;18.10;;;7.00;;
23082;SDS011;11709;52.420;10.538;2022-11-06T06:45:07;13.18;;;5.97;;
23082;SDS011;11709;52.420;10.538;2022-11-06T06:49:09;13.80;;;6.30;;
23082;SDS011;11709;52.420;10.538;2022-11-06T06:53:12;12.73;;;6.15;;
23082;SDS011;11709;52.420;10.538;2022-11-06T06:57:14;12.43;;;6.20;;
23082;SDS011;11709;52.420;10.538;2022-11-06T07:01:17;9.30;;;6.15;;
23082;SDS011;11709;52.420;10.538;2022-11-06T07:05:19;12.98;;;7.05;;
23082;SDS011;11709;52.420;10.538;2022-11-06T07:09:22;10.88;;;5.70;;
23082;SDS011;11709;52.420;10.538;2022-11-06T07:13:24;15.13;;;6.55;;
23082;SDS011;11709;52.420;10.538;2022-11-06T07:17:27;12.07;;;6.15;;
23082;SDS011;11709;52.420;10.538;2022-11-06T07:21:29;12.98;;;6.50;;
23082;SDS011;11709;52.420;10.538;2022-11-06T07:25:32;11.85;;;6.58;;
23082;SDS011;11709;52.420;10.538;2022-11-06T07:29:35;12.15;;;6.35;;
23082;SDS011;11709;52.420;10.538;2022-11-06T07:33:37;12.47;;;6.90;;
23082;SDS011;11709;52.420;10.538;2022-11-06T07:37:40;16.12;;;6.97;;
23082;SDS011;11709;52.420;10.538;2022-11-06T07:41:43;12.55;;;6.87;;
23082;SDS011;11709;52.420;10.538;2022-11-06T07:45:46;13.45;;;6.90;;
23082;SDS011;11709;52.420;10.538;2022-11-06T07:49:48;14.45;;;6.42;;
23082;SDS011;11709;52.420;10.538;2022-11-06T07:53:51;11.25;;;5.87;;
23082;SDS011;11709;52.420;10.538;2022-11-06T07:57:53;15.63;;;6.75;;
23082;SDS011;11709;52.420;10.538;2022-11-06T08:01:56;13.75;;;6.45;;
23082;SDS011;11709;52.420;10.538;2022-11-06T08:06:01;15.48;;;6.25;;
23082;SDS011;11709;52.420;10.538;2022-11-06T08:10:04;13.48;;;6.40;;
23082;SDS011;11709;52.420;10.538;2022-11-06T08:14:07;12.20;;;5.53;;
23082;SDS011;11709;52.420;10.538;2022-11-06T08:18:10;14.68;;;5.70;;
23082;SDS011;11709;52.420;10.538;2022-11-06T08:22:13;10.08;;;5.60;;
23082;SDS011;11709;52.420;10.538;2022-11-06T08:26:15;12.55;;;5.42;;
23082;SDS011;11709;52.420;10.538;2022-11-06T08:30:18;14.10;;;5.60;;
23082;SDS011;11709;52.420;10.538;2022-11-06T08:34:20;12.58;;;5.65;;
23082;SDS011;11709;52.420;10.538;2022-11-06T08:38:23;12.03;;;5.05;;
23082;SDS011;11709;52.420;10.538;2022-11-06T08:42:26;13.30;;;5.05;;
23082;SDS011;11709;52.420;10.538;2022-11-06T08:46:28;10.78;;;4.83;;
23082;SDS011;11709;52.420;10.538;2022-11-06T08:50:31;12.20;;;4.92;;
23082;SDS011;11709;52.420;10.538;2022-11-06T08:54:34;8.40;;;4.40;;
23082;SDS011;11709;52.420;10.538;2022-11-06T08:58:37;9.25;;;4.40;;
23082;SDS011;11709;52.420;10.538;2022-11-06T09:02:39;12.10;;;4.28;;
23082;SDS011;11709;52.420;10.538;2022-11-06T09:06:42;10.05;;;4.30;;
23082;SDS011;11709;52.420;10.538;2022-11-06T09:10:44;6.90;;;3.92;;
23082;SDS011;11709;52.420;10.538;2022-11-06T09:14:47;9.18;;;4.00;;
23082;SDS011;11709;52.420;10.538;2022-11-06T09:18:49;11.48;;;4.20;;
23082;SDS011;11709;52.420;10.538;2022-11-06T09:22:53;8.20;;;3.72;;
23082;SDS011;11709;52.420;10.538;2022-11-06T09:26:57;9.35;;;3.72;;
23082;SDS011;11709;52.420;10.538;2022-11-06T09:31:00;8.75;;;3.72;;
23082;SDS011;11709;52.420;10.538;2022-11-06T09:35:03;5.80;;;3.50;;
23082;SDS011;11709;52.420;10.538;2022-11-06T09:39:06;8.70;;;3.50;;
23082;SDS011;11709;52.420;10.538;2022-11-06T09:47:21;7.00;;;3.52;;
23082;SDS011;11709;52.420;10.538;2022-11-06T09:51:35;7.58;;;3.52;;
23082;SDS011;11709;52.420;10.538;2022-11-06T09:55:49;5.30;;;2.90;;
23082;SDS011;11709;52.420;10.538;2022-11-06T09:59:53;10.50;;;3.20;;
23082;SDS011;11709;52.420;10.538;2022-11-06T10:03:58;9.48;;;3.33;;
23082;SDS011;11709;52.420;10.538;2022-11-06T10:08:01;8.33;;;3.58;;
23082;SDS011;11709;52.420;10.538;2022-11-06T10:16:42;6.90;;;3.50;;
23082;SDS011;11709;52.420;10.538;2022-11-06T10:20:51;7.65;;;3.10;;
23082;SDS011;11709;52.420;10.538;2022-11-06T10:24:58;9.33;;;3.25;;
23082;SDS011;11709;52.420;10.538;2022-11-06T10:37:28;5.65;;;2.55;;
23082;SDS011;11709;52.420;10.538;2022-11-06T10:41:32;6.75;;;3.15;;
23082;SDS011;11709;52.420;10.538;2022-11-06T10:45:39;3.60;;;2.00;;
23082;SDS011;11709;52.420;10.538;2022-11-06T10:49:48;7.55;;;3.10;;
23082;SDS011;11709;52.420;10.538;2022-11-06T10:58:02;7.33;;;3.15;;
23082;SDS011;11709;52.420;10.538;2022-11-06T11:02:11;7.45;;;2.95;;
23082;SDS011;11709;52.420;10.538;2022-11-06T11:06:12;6.67;;;2.85;;
23082;SDS011;11709;52.420;10.538;2022-11-06T11:10:25;5.28;;;2.62;;
23082;SDS011;11709;52.420;10.538;2022-11-06T11:14:30;6.28;;;2.77;;
23082;SDS011;11709;52.420;10.538;2022-11-06T11:18:34;7.80;;;2.80;;
23082;SDS011;11709;52.420;10.538;2022-11-06T11:22:37;9.28;;;3.05;;
23082;SDS011;11709;52.420;10.538;2022-11-06T11:26:43;5.83;;;2.75;;
23082;SDS011;11709;52.420;10.538;2022-11-06T11:30:57;6.62;;;2.75;;
23082;SDS011;11709;52.420;10.538;2022-11-06T11:34:59;7.85;;;3.70;;
23082;SDS011;11709;52.420;10.538;2022-11-06T11:39:03;11.00;;;3.08;;
23082;SDS011;11709;52.420;10.538;2022-11-06T11:43:21;8.25;;;3.05;;
23082;SDS011;11709;52.420;10.538;2022-11-06T11:47:26;5.17;;;2.90;;
23082;SDS011;11709;52.420;10.538;2022-11-06T11:51:39;6.05;;;3.05;;
23082;SDS011;11709;52.420;10.538;2022-11-06T11:55:43;8.80;;;2.50;;
23082;SDS011;11709;52.420;10.538;2022-11-06T11:59:50;6.33;;;2.33;;
23082;SDS011;11709;52.420;10.538;2022-11-06T12:03:55;7.90;;;2.42;;
23082;SDS011;11709;52.420;10.538;2022-11-06T12:07:58;7.15;;;2.40;;
23082;SDS011;11709;52.420;10.538;2022-11-06T12:12:02;10.32;;;2.70;;
23082;SDS011;11709;52.420;10.538;2022-11-06T12:16:06;5.40;;;2.62;;
23082;SDS011;11709;52.420;10.538;2022-11-06T12:20:11;8.03;;;2.33;;
23082;SDS011;11709;52.420;10.538;2022-11-06T12:24:22;5.42;;;2.55;;
23082;SDS011;11709;52.420;10.538;2022-11-06T12:28:27;8.20;;;2.10;;
23082;SDS011;11709;52.420;10.538;2022-11-06T12:32:40;7.37;;;2.10;;
23082;SDS011;11709;52.420;10.538;2022-11-06T12:37:01;5.97;;;2.00;;
23082;SDS011;11709;52.420;10.538;2022-11-06T12:41:10;7.85;;;2.58;;
23082;SDS011;11709;52.420;10.538;2022-11-06T12:45:17;6.03;;;2.25;;
23082;SDS011;11709;52.420;10.538;2022-11-06T12:49:27;5.05;;;1.90;;
23082;SDS011;11709;52.420;10.538;2022-11-06T13:02:26;4.95;;;2.25;;
23082;SDS011;11709;52.420;10.538;2022-11-06T13:06:48;3.90;;;1.92;;
23082;SDS011;11709;52.420;10.538;2022-11-06T13:15:09;9.63;;;4.20;;
23082;SDS011;11709;52.420;10.538;2022-11-06T13:19:33;12.63;;;4.90;;
23082;SDS011;11709;52.420;10.538;2022-11-06T13:23:42;6.72;;;2.30;;
23082;SDS011;11709;52.420;10.538;2022-11-06T13:27:50;4.58;;;1.98;;
23082;SDS011;11709;52.420;10.538;2022-11-06T13:31:59;5.42;;;2.30;;
23082;SDS011;11709;52.420;10.538;2022-11-06T13:35:59;4.47;;;2.37;;
23082;SDS011;11709;52.420;10.538;2022-11-06T13:40:50;6.80;;;2.00;;
23082;SDS011;11709;52.420;10.538;2022-11-06T13:44:24;6.70;;;2.40;;
23082;SDS011;11709;52.420;10.538;2022-11-06T13:48:30;8.80;;;2.40;;
23082;SDS011;11709;52.420;10.538;2022-11-06T13:52:53;4.03;;;1.83;;
23082;SDS011;11709;52.420;10.538;2022-11-06T13:57:00;3.58;;;2.20;;
23082;SDS011;11709;52.420;10.538;2022-11-06T14:01:10;5.20;;;2.47;;
23082;SDS011;11709;52.420;10.538;2022-11-06T14:09:34;4.30;;;2.65;;
23082;SDS011;11709;52.420;10.538;2022-11-06T14:13:38;4.83;;;1.90;;
23082;SDS011;11709;52.420;10.538;2022-11-06T14:17:42;5.03;;;2.20;;
23082;SDS011;11709;52.420;10.538;2022-11-06T14:26:39;3.10;;;1.65;;
23082;SDS011;11709;52.420;10.538;2022-11-06T14:30:44;3.85;;;1.72;;
23082;SDS011;11709;52.420;10.538;2022-11-06T14:34:46;5.83;;;1.95;;
23082;SDS011;11709;52.420;10.538;2022-11-06T14:38:49;5.40;;;1.90;;
23082;SDS011;11709;52.420;10.538;2022-11-06T14:42:55;4.83;;;1.60;;
23082;SDS011;11709;52.420;10.538;2022-11-06T14:46:59;1.98;;;1.42;;
23082;SDS011;11709;52.420;10.538;2022-11-06T14:51:05;6.13;;;1.27;;
23082;SDS011;11709;52.420;10.538;2022-11-06T14:55:20;4.40;;;1.57;;
23082;SDS011;11709;52.420;10.538;2022-11-06T14:59:32;6.75;;;1.75;;
23082;SDS011;11709;52.420;10.538;2022-11-06T15:03:52;4.83;;;1.52;;
23082;SDS011;11709;52.420;10.538;2022-11-06T15:08:09;4.50;;;1.40;;
23082;SDS011;11709;52.420;10.538;2022-11-06T15:12:11;4.83;;;1.75;;
23082;SDS011;11709;52.420;10.538;2022-11-06T15:16:14;3.58;;;1.45;;
23082;SDS011;11709;52.420;10.538;2022-11-06T15:20:18;4.80;;;1.67;;
23082;SDS011;11709;52.420;10.538;2022-11-06T15:24:30;4.22;;;1.70;;
23082;SDS011;11709;52.420;10.538;2022-11-06T15:28:38;4.00;;;1.50;;
23082;SDS011;11709;52.420;10.538;2022-11-06T15:32:48;13.65;;;7.55;;
23082;SDS011;11709;52.420;10.538;2022-11-06T15:36:54;8.40;;;4.08;;
23082;SDS011;11709;52.420;10.538;2022-11-06T15:40:59;23.95;;;9.05;;
23082;SDS011;11709;52.420;10.538;2022-11-06T15:45:44;11.88;;;4.95;;
23082;SDS011;11709;52.420;10.538;2022-11-06T15:49:17;44.77;;;22.52;;
23082;SDS011;11709;52.420;10.538;2022-11-06T15:53:22;31.48;;;12.60;;
23082;SDS011;11709;52.420;10.538;2022-11-06T15:57:26;11.57;;;6.62;;
23082;SDS011;11709;52.420;10.538;2022-11-06T16:01:31;12.25;;;5.92;;
23082;SDS011;11709;52.420;10.538;2022-11-06T16:05:34;7.85;;;3.08;;
23082;SDS011;11709;52.420;10.538;2022-11-06T16:09:37;6.58;;;2.80;;
23082;SDS011;11709;52.420;10.538;2022-11-06T16:13:44;7.05;;;3.80;;
23082;SDS011;11709;52.420;10.538;2022-11-06T16:17:47;8.28;;;3.92;;
23082;SDS011;11709;52.420;10.538;2022-11-06T16:21:51;16.70;;;6.95;;
23082;SDS011;11709;52.420;10.538;2022-11-06T16:26:11;5.55;;;3.30;;
23082;SDS011;11709;52.420;10.538;2022-11-06T16:30:19;5.53;;;2.83;;
23082;SDS011;11709;52.420;10.538;2022-11-06T16:38:38;9.75;;;3.00;;
23082;SDS011;11709;52.420;10.538;2022-11-06T16:42:43;6.90;;;2.75;;
23082;SDS011;11709;52.420;10.538;2022-11-06T16:51:31;5.12;;;3.00;;
23082;SDS011;11709;52.420;10.538;2022-11-06T16:55:34;7.60;;;3.52;;
23082;SDS011;11709;52.420;10.538;2022-11-06T16:59:36;4.53;;;2.52;;
23082;SDS011;11709;52.420;10.538;2022-11-06T17:03:44;6.10;;;3.17;;
23082;SDS011;11709;52.420;10.538;2022-11-06T17:07:48;9.75;;;3.47;;
23082;SDS011;11709;52.420;10.538;2022-11-06T17:12:08;6.65;;;2.70;;
23082;SDS011;11709;52.420;10.538;2022-11-06T17:16:12;5.58;;;2.50;;
23082;SDS011;11709;52.420;10.538;2022-11-06T17:20:17;7.58;;;2.80;;
23082;SDS011;11709;52.420;10.538;2022-11-06T17:24:20;4.00;;;2.80;;
23082;SDS011;11709;52.420;10.538;2022-11-06T17:28:22;11.10;;;4.70;;
23082;SDS011;11709;52.420;10.538;2022-11-06T17:32:25;4.72;;;3.02;;
23082;SDS011;11709;52.420;10.538;2022-11-06T17:36:27;5.30;;;3.45;;
23082;SDS011;11709;52.420;10.538;2022-11-06T17:40:32;5.55;;;3.12;;
23082;SDS011;11709;52.420;10.538;2022-11-06T17:44:35;5.05;;;3.50;;
23082;SDS011;11709;52.420;10.538;2022-11-06T17:48:37;7.78;;;3.58;;
23082;SDS011;11709;52.420;10.538;2022-11-06T17:52:40;4.53;;;3.17;;
23082;SDS011;11709;52.420;10.538;2022-11-06T17:56:43;7.53;;;3.27;;
23082;SDS011;11709;52.420;10.538;2022-11-06T18:00:45;4.53;;;2.90;;
23082;SDS011;11709;52.420;10.538;2022-11-06T18:04:48;5.85;;;3.52;;
23082;SDS011;11709;52.420;10.538;2022-11-06T18:08:54;5.70;;;2.80;;
23082;SDS011;11709;52.420;10.538;2022-11-06T18:12:57;5.78;;;3.45;;
23082;SDS011;11709;52.420;10.538;2022-11-06T18:17:00;4.33;;;2.62;;
23082;SDS011;11709;52.420;10.538;2022-11-06T18:21:02;5.08;;;2.72;;
23082;SDS011;11709;52.420;10.538;2022-11-06T18:25:05;4.92;;;2.58;;
23082;SDS011;11709;52.420;10.538;2022-11-06T18:29:09;5.75;;;2.72;;
23082;SDS011;11709;52.420;10.538;2022-11-06T18:33:12;3.70;;;2.30;;
23082;SDS011;11709;52.420;10.538;2022-11-06T18:37:15;3.52;;;2.40;;
23082;SDS011;11709;52.420;10.538;2022-11-06T18:41:19;3.55;;;2.20;;
23082;SDS011;11709;52.420;10.538;2022-11-06T18:45:22;4.83;;;2.40;;
23082;SDS011;11709;52.420;10.538;2022-11-06T18:49:25;5.37;;;2.58;;
23082;SDS011;11709;52.420;10.538;2022-11-06T18:53:27;4.50;;;2.52;;
23082;SDS011;11709;52.420;10.538;2022-11-06T18:57:30;3.33;;;2.33;;
23082;SDS011;11709;52.420;10.538;2022-11-06T19:01:32;3.62;;;2.30;;
23082;SDS011;11709;52.420;10.538;2022-11-06T19:05:35;5.83;;;3.05;;
23082;SDS011;11709;52.420;10.538;2022-11-06T19:09:37;4.55;;;2.85;;
23082;SDS011;11709;52.420;10.538;2022-11-06T19:13:40;5.67;;;3.02;;
23082;SDS011;11709;52.420;10.538;2022-11-06T19:17:43;6.75;;;3.25;;
23082;SDS011;11709;52.420;10.538;2022-11-06T19:21:45;7.47;;;3.70;;
23082;SDS011;11709;52.420;10.538;2022-11-06T19:25:48;4.50;;;3.27;;
23082;SDS011;11709;52.420;10.538;2022-11-06T19:29:50;7.50;;;3.22;;
23082;SDS011;11709;52.420;10.538;2022-11-06T19:33:58;4.70;;;3.50;;
23082;SDS011;11709;52.420;10.538;2022-11-06T19:37:58;7.12;;;3.33;;
23082;SDS011;11709;52.420;10.538;2022-11-06T19:42:00;9.88;;;4.03;;
23082;SDS011;11709;52.420;10.538;2022-11-06T19:46:03;8.83;;;5.22;;
23082;SDS011;11709;52.420;10.538;2022-11-06T19:50:07;8.53;;;5.90;;
23082;SDS011;11709;52.420;10.538;2022-11-06T19:54:09;5.85;;;3.75;;
23082;SDS011;11709;52.420;10.538;2022-11-06T19:58:18;15.65;;;3.22;;
23082;SDS011;11709;52.420;10.538;2022-11-06T20:02:17;4.72;;;3.10;;
23082;SDS011;11709;52.420;10.538;2022-11-06T20:06:19;5.15;;;2.90;;
23082;SDS011;11709;52.420;10.538;2022-11-06T20:10:22;4.22;;;3.47;;
23082;SDS011;11709;52.420;10.538;2022-11-06T20:14:25;3.80;;;2.90;;
23082;SDS011;11709;52.420;10.538;2022-11-06T20:18:28;4.12;;;2.90;;
23082;SDS011;11709;52.420;10.538;2022-11-06T20:22:30;4.60;;;2.92;;
23082;SDS011;11709;52.420;10.538;2022-11-06T20:26:33;3.77;;;2.90;;
23082;SDS011;11709;52.420;10.538;2022-11-06T20:30:35;7.70;;;3.30;;
23082;SDS011;11709;52.420;10.538;2022-11-06T20:34:38;6.50;;;3.30;;
23082;SDS011;11709;52.420;10.538;2022-11-06T20:38:40;5.85;;;3.20;;
23082;SDS011;11709;52.420;10.538;2022-11-06T20:42:44;5.95;;;3.25;;
23082;SDS011;11709;52.420;10.538;2022-11-06T20:46:47;5.28;;;3.15;;
23082;SDS011;11709;52.420;10.538;2022-11-06T20:50:56;5.78;;;3.30;;
23082;SDS011;11709;52.420;10.538;2022-11-06T20:55:00;6.92;;;3.55;;
23082;SDS011;11709;52.420;10.538;2022-11-06T20:59:02;7.53;;;3.50;;
23082;SDS011;11709;52.420;10.538;2022-11-06T21:03:05;6.37;;;3.75;;
23082;SDS011;11709;52.420;10.538;2022-11-06T21:07:07;7.55;;;4.40;;
23082;SDS011;11709;52.420;10.538;2022-11-06T21:11:14;10.32;;;4.42;;
23082;SDS011;11709;52.420;10.538;2022-11-06T21:15:19;10.85;;;5.78;;
23082;SDS011;11709;52.420;10.538;2022-11-06T21:19:21;8.95;;;5.08;;
23082;SDS011;11709;52.420;10.538;2022-11-06T21:23:24;8.23;;;4.90;;
23082;SDS011;11709;52.420;10.538;2022-11-06T21:27:26;8.03;;;4.55;;
23082;SDS011;11709;52.420;10.538;2022-11-06T21:31:29;8.05;;;4.33;;
23082;SDS011;11709;52.420;10.538;2022-11-06T21:35:32;7.03;;;4.72;;
23082;SDS011;11709;52.420;10.538;2022-11-06T21:39:35;8.28;;;4.72;;
23082;SDS011;11709;52.420;10.538;2022-11-06T21:43:38;7.62;;;4.62;;
23082;SDS011;11709;52.420;10.538;2022-11-06T21:47:40;6.28;;;4.53;;
23082;SDS011;11709;52.420;10.538;2022-11-06T21:51:43;6.22;;;3.85;;
23082;SDS011;11709;52.420;10.538;2022-11-06T21:55:45;5.05;;;3.77;;
23082;SDS011;11709;52.420;10.538;2022-11-06T22:00:00;7.55;;;4.60;;
23082;SDS011;11709;52.420;10.538;2022-11-06T22:04:02;7.10;;;4.28;;
23082;SDS011;11709;52.420;10.538;2022-11-06T22:08:05;7.75;;;4.75;;
23082;SDS011;11709;52.420;10.538;2022-11-06T22:12:09;7.60;;;4.50;;
23082;SDS011;11709;52.420;10.538;2022-11-06T22:16:12;8.03;;;4.85;;
23082;SDS011;11709;52.420;10.538;2022-11-06T22:20:16;8.08;;;4.72;;
23082;SDS011;11709;52.420;10.538;2022-11-06T22:24:19;6.10;;;4.22;;
23082;SDS011;11709;52.420;10.538;2022-11-06T22:28:21;8.98;;;6.15;;
23082;SDS011;11709;52.420;10.538;2022-11-06T22:32:24;10.98;;;5.45;;
23082;SDS011;11709;52.420;10.538;2022-11-06T22:36:26;7.70;;;5.05;;
23082;SDS011;11709;52.420;10.538;2022-11-06T22:40:29;8.30;;;5.22;;
23082;SDS011;11709;52.420;10.538;2022-11-06T22:44:36;6.25;;;4.47;;
23082;SDS011;11709;52.420;10.538;2022-11-06T22:48:36;9.80;;;5.70;;
23082;SDS011;11709;52.420;10.538;2022-11-06T22:52:38;7.72;;;5.35;;
23082;SDS011;11709;52.420;10.538;2022-11-06T22:56:41;9.33;;;5.95;;
23082;SDS011;11709;52.420;10.538;2022-11-06T23:00:43;9.43;;;5.70;;
23082;SDS011;11709;52.420;10.538;2022-11-06T23:04:49;10.05;;;6.60;;
23082;SDS011;11709;52.420;10.538;2022-11-06T23:08:52;9.73;;;5.97;;
23082;SDS011;11709;52.420;10.538;2022-11-06T23:12:55;10.23;;;6.37;;
23082;SDS011;11709;52.420;10.538;2022-11-06T23:16:58;10.82;;;6.20;;
23082;SDS011;11709;52.420;10.538;2022-11-06T23:21:00;9.45;;;6.15;;
23082;SDS011;11709;52.420;10.538;2022-11-06T23:25:05;11.65;;;6.67;;
23082;SDS011;11709;52.420;10.538;2022-11-06T23:29:09;10.55;;;6.75;;
23082;SDS011;11709;52.420;10.538;2022-11-06T23:33:12;10.58;;;6.22;;
23082;SDS011;11709;52.420;10.538;2022-11-06T23:37:14;9.85;;;6.33;;
23082;SDS011;11709;52.420;10.538;2022-11-06T23:41:17;9.28;;;5.80;;
23082;SDS011;11709;52.420;10.538;2022-11-06T23:45:37;13.68;;;6.97;;
23082;SDS011;11709;52.420;10.538;2022-11-06T23:49:49;12.78;;;7.22;;
23082;SDS011;11709;52.420;10.538;2022-11-06T23:53:52;12.82;;;6.62;;
23082;SDS011;11709;52.420;10.538;2022-11-06T23:57:58;9.38;;;6.00;;
